createdAt,value
2022-10-18T00:00:10.272Z,50.52
2022-10-18T00:01:10.251Z,51.02
2022-10-18T00:02:10.343Z,50.41
2022-10-18T00:03:10.269Z,50.79
2022-10-18T00:04:10.249Z,50.53
2022-10-18T00:05:10.257Z,50.85
2022-10-18T00:06:10.242Z,50.62
2022-10-18T00:07:10.235Z,50.81
2022-10-18T00:08:11.287Z,50.28
2022-10-18T00:09:10.238Z,50.85
2022-10-18T00:10:10.251Z,50.31
2022-10-18T00:11:10.251Z,50.77
2022-10-18T00:12:10.257Z,50.27
2022-10-18T00:13:10.229Z,50.85
2022-10-18T00:14:10.248Z,50.3
2022-10-18T00:15:10.228Z,50.91
2022-10-18T00:16:10.254Z,50.5
2022-10-18T00:17:10.260Z,50.95
2022-10-18T00:18:10.243Z,50.35
2022-10-18T00:19:10.224Z,50.71
2022-10-18T00:20:10.220Z,50.46
2022-10-18T00:21:10.223Z,50.67
2022-10-18T00:22:10.288Z,50.22
2022-10-18T00:23:10.234Z,50.51
2022-10-18T00:24:10.237Z,50.28
2022-10-18T00:25:10.222Z,50.54
2022-10-18T00:26:10.218Z,50.13
2022-10-18T00:27:10.232Z,50.59
2022-10-18T00:28:10.210Z,50.19
2022-10-18T00:29:10.226Z,50.65
2022-10-18T00:30:10.209Z,50.22
2022-10-18T00:31:10.213Z,50.49
2022-10-18T00:32:10.252Z,50.46
2022-10-18T00:33:10.215Z,50.71
2022-10-18T00:34:10.212Z,50.39
2022-10-18T00:35:10.215Z,50.83
2022-10-18T00:36:10.203Z,50.24
2022-10-18T00:37:10.201Z,50.73
2022-10-18T00:38:10.195Z,50.39
2022-10-18T00:39:10.219Z,50.63
2022-10-18T00:40:10.204Z,50.32
2022-10-18T00:41:10.203Z,50.7
2022-10-18T00:42:10.192Z,50.44
2022-10-18T00:43:10.200Z,50.72
2022-10-18T00:44:10.210Z,50.22
2022-10-18T00:45:10.197Z,50.78
2022-10-18T00:46:10.189Z,50.25
2022-10-18T00:47:10.193Z,50.53
2022-10-18T00:48:10.230Z,50.35
2022-10-18T00:49:10.191Z,50.67
2022-10-18T00:50:10.206Z,50.48
2022-10-18T00:51:10.185Z,50.67
2022-10-18T00:52:10.183Z,50.64
2022-10-18T00:53:10.186Z,51.09
2022-10-18T00:54:10.186Z,50.42
2022-10-18T00:55:10.199Z,50.61
2022-10-18T00:56:10.183Z,50.19
2022-10-18T00:57:10.178Z,51.22
2022-10-18T00:58:10.177Z,50.6
2022-10-18T00:59:10.175Z,50.92
2022-10-18T01:00:10.244Z,50.48
2022-10-18T01:01:10.278Z,50.82
2022-10-18T01:02:10.300Z,50.57
2022-10-18T01:03:10.179Z,51.09
2022-10-18T01:04:10.202Z,50.44
2022-10-18T01:05:10.173Z,51.1
2022-10-18T01:06:10.173Z,50.47
2022-10-18T01:07:10.182Z,50.55
2022-10-18T01:08:10.164Z,50.15
2022-10-18T01:09:10.168Z,50.84
2022-10-18T01:10:10.163Z,50.25
2022-10-18T01:11:10.176Z,50.62
2022-10-18T01:12:10.185Z,50.12
2022-10-18T01:13:10.157Z,50.51
2022-10-18T01:14:10.161Z,50.53
2022-10-18T01:15:10.166Z,50.63
2022-10-18T01:16:10.159Z,50.14
2022-10-18T01:17:10.202Z,50.84
2022-10-18T01:18:10.154Z,50.5
2022-10-18T01:19:10.161Z,50.85
2022-10-18T01:20:10.175Z,50.6
2022-10-18T01:21:10.162Z,50.97
2022-10-18T01:22:10.163Z,50.51
2022-10-18T01:23:10.150Z,50.58
2022-10-18T01:24:10.146Z,50.15
2022-10-18T01:25:10.147Z,50.8
2022-10-18T01:26:10.143Z,50.47
2022-10-18T01:27:10.160Z,50.86
2022-10-18T01:28:10.147Z,50.32
2022-10-18T01:29:10.148Z,50.78
2022-10-18T01:30:10.148Z,50.61
2022-10-18T01:31:10.138Z,50.89
2022-10-18T01:32:10.151Z,50.5
2022-10-18T01:33:10.135Z,50.51
2022-10-18T01:34:10.147Z,50.37
2022-10-18T01:35:10.136Z,50.7
2022-10-18T01:36:10.177Z,50.48
2022-10-18T01:37:10.134Z,50.89
2022-10-18T01:38:10.130Z,50.5
2022-10-18T01:39:10.147Z,50.93
2022-10-18T01:40:10.134Z,50.45
2022-10-18T01:41:13.289Z,50.92
2022-10-18T01:42:10.129Z,50.76
2022-10-18T01:43:10.142Z,50.97
2022-10-18T01:44:10.123Z,50.41
2022-10-18T01:45:10.125Z,50.86
2022-10-18T01:46:10.199Z,50.38
2022-10-18T01:47:10.134Z,50.82
2022-10-18T01:48:10.129Z,50.58
2022-10-18T01:49:10.121Z,50.8
2022-10-18T01:50:10.125Z,50.46
2022-10-18T01:51:10.134Z,50.64
2022-10-18T01:52:10.148Z,50.22
2022-10-18T01:53:10.133Z,51.11
2022-10-18T01:54:10.116Z,50.47
2022-10-18T01:55:10.110Z,50.95
2022-10-18T01:56:10.128Z,50.48
2022-10-18T01:57:10.107Z,50.48
2022-10-18T01:58:10.123Z,50.46
2022-10-18T01:59:10.114Z,50.84
2022-10-18T02:00:10.109Z,50.55
2022-10-18T02:02:10.102Z,50.47
2022-10-18T02:03:10.116Z,50.88
2022-10-18T02:04:10.113Z,50.67
2022-10-18T02:05:10.104Z,50.89
2022-10-18T02:06:10.105Z,50.5
2022-10-18T02:07:10.101Z,51.06
2022-10-18T02:08:22.767Z,50.59
2022-10-18T02:09:10.094Z,50.8
2022-10-18T02:10:10.150Z,50.58
2022-10-18T02:11:10.088Z,50.97
2022-10-18T02:12:10.108Z,50.5
2022-10-18T02:13:10.107Z,50.92
2022-10-18T02:14:10.088Z,50.72
2022-10-18T02:15:10.093Z,51.04
2022-10-18T02:16:10.095Z,50.32
2022-10-18T02:17:10.132Z,50.97
2022-10-18T02:18:10.082Z,50.65
2022-10-18T02:19:10.086Z,51.14
2022-10-18T02:20:10.093Z,50.74
2022-10-18T02:21:10.082Z,50.81
2022-10-18T02:22:10.097Z,50.31
2022-10-18T02:23:10.098Z,50.71
2022-10-18T02:24:10.118Z,50.47
2022-10-18T02:25:10.078Z,50.69
2022-10-18T02:26:10.070Z,50.28
2022-10-18T02:27:10.069Z,50.77
2022-10-18T02:28:11.524Z,50.68
2022-10-18T02:29:10.091Z,51.12
2022-10-18T02:30:10.076Z,50.5
2022-10-18T02:31:10.069Z,50.79
2022-10-18T02:32:10.068Z,50.54
2022-10-18T02:33:10.066Z,50.82
2022-10-18T02:34:10.082Z,50.46
2022-10-18T02:35:10.077Z,50.83
2022-10-18T02:36:10.070Z,50.48
2022-10-18T02:37:10.079Z,51.05
2022-10-18T02:38:10.066Z,50.35
2022-10-18T02:39:10.075Z,51.08
2022-10-18T02:40:10.083Z,50.64
2022-10-18T02:41:10.062Z,51.03
2022-10-18T02:42:10.071Z,50.57
2022-10-18T02:43:10.061Z,51.1
2022-10-18T02:44:10.070Z,50.82
2022-10-18T02:45:10.057Z,50.81
2022-10-18T02:46:10.059Z,50.72
2022-10-18T02:47:10.054Z,50.94
2022-10-18T02:48:10.070Z,50.66
2022-10-18T02:49:10.051Z,51.08
2022-10-18T02:50:10.046Z,50.27
2022-10-18T02:51:10.083Z,50.89
2022-10-18T02:52:10.045Z,50.85
2022-10-18T02:53:10.048Z,51
2022-10-18T02:54:10.047Z,50.7
2022-10-18T02:55:10.056Z,50.9
2022-10-18T02:56:10.087Z,50.67
2022-10-18T02:57:10.050Z,50.97
2022-10-18T02:58:10.042Z,50.43
2022-10-18T02:59:10.034Z,50.58
2022-10-18T03:00:10.035Z,50.61
2022-10-18T03:01:10.131Z,50.98
2022-10-18T03:02:10.040Z,50.42
2022-10-18T03:03:10.034Z,50.87
2022-10-18T03:04:10.029Z,50.46
2022-10-18T03:05:10.033Z,51.02
2022-10-18T03:06:10.042Z,50.61
2022-10-18T03:07:10.037Z,50.63
2022-10-18T03:08:10.045Z,50.42
2022-10-18T03:09:10.029Z,50.92
2022-10-18T03:10:10.030Z,50.66
2022-10-18T03:11:10.046Z,50.91
2022-10-18T03:12:10.068Z,51.08
2022-10-18T03:13:10.022Z,50.78
2022-10-18T03:14:10.029Z,50.73
2022-10-18T03:15:11.031Z,51.31
2022-10-18T03:16:10.017Z,50.8
2022-10-18T03:17:10.067Z,50.86
2022-10-18T03:18:10.017Z,50.43
2022-10-18T03:19:10.012Z,50.67
2022-10-18T03:20:10.018Z,50.38
2022-10-18T03:21:10.053Z,51.02
2022-10-18T03:22:10.007Z,50.51
2022-10-18T03:23:10.014Z,51.12
2022-10-18T03:24:10.005Z,50.77
2022-10-18T03:25:10.007Z,50.95
2022-10-18T03:26:10.006Z,50.59
2022-10-18T03:27:10.016Z,50.98
2022-10-18T03:28:10.028Z,50.43
2022-10-18T03:29:10.060Z,51
2022-10-18T03:30:10.017Z,50.59
2022-10-18T03:31:10.003Z,51.25
2022-10-18T03:32:09.995Z,50.9
2022-10-18T03:33:10.001Z,51.33
2022-10-18T03:34:10.019Z,50.81
2022-10-18T03:35:09.994Z,51.18
2022-10-18T03:36:10.001Z,50.87
2022-10-18T03:37:10.010Z,51.18
2022-10-18T03:38:09.991Z,50.75
2022-10-18T03:39:10.006Z,51.43
2022-10-18T03:40:09.999Z,50.62
2022-10-18T03:41:09.995Z,50.92
2022-10-18T03:42:09.999Z,50.73
2022-10-18T03:43:09.998Z,51.1
2022-10-18T03:44:10.027Z,51.09
2022-10-18T03:45:09.989Z,51.11
2022-10-18T03:46:09.989Z,50.86
2022-10-18T03:47:09.982Z,50.9
2022-10-18T03:48:09.987Z,50.47
2022-10-18T03:49:09.997Z,50.93
2022-10-18T03:50:09.999Z,50.7
2022-10-18T03:51:09.984Z,51.1
2022-10-18T03:52:09.974Z,50.68
2022-10-18T03:53:09.970Z,50.9
2022-10-18T03:54:09.996Z,50.47
2022-10-18T03:55:09.978Z,50.75
2022-10-18T03:56:09.983Z,50.45
2022-10-18T03:57:09.972Z,51.18
2022-10-18T03:58:09.972Z,50.61
2022-10-18T03:59:09.987Z,51.09
2022-10-18T04:00:10.015Z,50.76
2022-10-18T04:01:10.025Z,50.98
2022-10-18T04:02:09.965Z,50.73
2022-10-18T04:03:09.979Z,51.12
2022-10-18T04:04:09.964Z,50.56
2022-10-18T04:05:09.960Z,50.93
2022-10-18T04:06:10.054Z,50.88
2022-10-18T04:07:09.963Z,51.3
2022-10-18T04:08:09.972Z,51.07
2022-10-18T04:09:10.359Z,51.23
2022-10-18T04:10:09.955Z,50.94
2022-10-18T04:11:09.983Z,51.53
2022-10-18T04:12:09.954Z,51.04
2022-10-18T04:13:09.972Z,51.15
2022-10-18T04:14:09.953Z,50.59
2022-10-18T04:15:09.954Z,50.88
2022-10-18T04:16:09.989Z,50.58
2022-10-18T04:17:09.952Z,51
2022-10-18T04:18:09.982Z,50.65
2022-10-18T04:19:09.955Z,50.87
2022-10-18T04:20:09.944Z,50.75
2022-10-18T04:21:09.938Z,51.16
2022-10-18T04:22:09.940Z,51.08
2022-10-18T04:23:09.945Z,50.72
2022-10-18T04:24:09.954Z,50.56
2022-10-18T04:25:09.942Z,50.68
2022-10-18T04:26:09.944Z,50.37
2022-10-18T04:27:09.945Z,51.09
2022-10-18T04:28:09.931Z,50.46
2022-10-18T04:29:10.076Z,50.96
2022-10-18T04:30:09.934Z,50.65
2022-10-18T04:31:09.931Z,50.88
2022-10-18T04:32:09.937Z,50.45
2022-10-18T04:33:09.938Z,51.15
2022-10-18T04:34:09.950Z,50.87
2022-10-18T04:35:09.953Z,51.38
2022-10-18T04:36:09.930Z,51.09
2022-10-18T04:37:09.927Z,51.42
2022-10-18T04:38:09.926Z,50.78
2022-10-18T04:39:09.938Z,51.49
2022-10-18T04:40:09.928Z,51.01
2022-10-18T04:41:09.920Z,51.43
2022-10-18T04:42:09.928Z,50.96
2022-10-18T04:43:09.916Z,51.24
2022-10-18T04:44:09.938Z,51.17
2022-10-18T04:45:09.932Z,51.33
2022-10-18T04:46:09.913Z,50.62
2022-10-18T04:47:09.915Z,51.42
2022-10-18T04:48:09.915Z,51.39
2022-10-18T04:49:09.915Z,51.61
2022-10-18T04:50:09.922Z,51.52
2022-10-18T04:51:09.947Z,50.97
2022-10-18T04:52:09.909Z,50.79
2022-10-18T04:53:09.917Z,51.43
2022-10-18T04:54:09.919Z,51.05
2022-10-18T04:55:09.903Z,51.63
2022-10-18T04:56:09.904Z,51.03
2022-10-18T04:57:09.904Z,51.44
2022-10-18T04:58:09.904Z,51.13
2022-10-18T04:59:09.916Z,51.35
2022-10-18T05:00:09.899Z,51.29
2022-10-18T05:01:09.895Z,51.28
2022-10-18T05:02:09.900Z,51.08
2022-10-18T05:03:09.892Z,51.46
2022-10-18T05:04:09.907Z,51.15
2022-10-18T05:05:11.775Z,51.58
2022-10-18T05:06:09.897Z,51.44
2022-10-18T05:07:09.913Z,51.8
2022-10-18T05:08:09.896Z,51.27
2022-10-18T05:09:09.901Z,51.8
2022-10-18T05:10:09.891Z,51.82
2022-10-18T05:12:09.885Z,51.59
2022-10-18T05:13:09.895Z,52.12
2022-10-18T05:14:09.882Z,51.82
2022-10-18T05:15:09.889Z,52.13
2022-10-18T05:16:09.885Z,51.76
2022-10-18T05:17:09.879Z,51.98
2022-10-18T05:18:09.929Z,51.58
2022-10-18T05:19:09.896Z,52.06
2022-10-18T05:20:10.075Z,51.61
2022-10-18T05:21:09.870Z,52.02
2022-10-18T05:22:09.887Z,51.8
2022-10-18T05:23:09.894Z,52.43
2022-10-18T05:24:09.870Z,51.8
2022-10-18T05:25:09.878Z,52.4
2022-10-18T05:26:09.871Z,51.85
2022-10-18T05:27:09.871Z,52.5
2022-10-18T05:28:34.079Z,52.23
2022-10-18T05:29:10.017Z,52.32
2022-10-18T05:30:09.879Z,51.71
2022-10-18T05:31:09.885Z,51.97
2022-10-18T05:32:09.857Z,51.85
2022-10-18T05:33:09.881Z,52.1
2022-10-18T05:34:09.867Z,51.96
2022-10-18T05:35:09.872Z,52.4
2022-10-18T05:36:09.883Z,51.86
2022-10-18T05:37:09.859Z,52.33
2022-10-18T05:38:09.859Z,51.82
2022-10-18T05:39:09.882Z,52.07
2022-10-18T05:40:09.869Z,52.08
2022-10-18T05:41:09.846Z,52.24
2022-10-18T05:42:09.845Z,52.01
2022-10-18T05:43:09.847Z,51.96
2022-10-18T05:44:09.859Z,51.7
2022-10-18T05:45:09.853Z,51.92
2022-10-18T05:46:14.582Z,51.49
2022-10-18T05:47:09.856Z,52.13
2022-10-18T05:48:09.845Z,51.79
2022-10-18T05:49:09.868Z,52.48
2022-10-18T05:50:09.852Z,51.99
2022-10-18T05:51:09.860Z,52.14
2022-10-18T05:52:09.839Z,51.6
2022-10-18T05:53:12.415Z,51.59
2022-10-18T05:54:09.856Z,52.28
2022-10-18T05:55:09.866Z,52.6
2022-10-18T05:56:09.833Z,52.02
2022-10-18T05:57:09.840Z,52.48
2022-10-18T05:58:09.850Z,51.99
2022-10-18T05:59:09.857Z,52.08
2022-10-18T06:00:09.851Z,52.27
2022-10-18T06:01:09.831Z,50.97
2022-10-18T06:02:09.875Z,50.93
2022-10-18T06:03:09.823Z,52.17
2022-10-18T06:04:09.838Z,52.44
2022-10-18T06:05:09.878Z,52.55
2022-10-18T06:06:09.832Z,52.36
2022-10-18T06:07:09.820Z,52.41
2022-10-18T06:08:10.387Z,51.88
2022-10-18T06:09:09.836Z,52.18
2022-10-18T06:10:09.818Z,51.89
2022-10-18T06:11:09.838Z,51.84
2022-10-18T06:12:09.818Z,51.69
2022-10-18T06:13:09.817Z,51.9
2022-10-18T06:14:09.838Z,52.16
2022-10-18T06:15:09.832Z,52.39
2022-10-18T06:16:09.817Z,51.69
2022-10-18T06:17:09.814Z,52.14
2022-10-18T06:18:09.842Z,51.39
2022-10-18T06:19:09.828Z,51.58
2022-10-18T06:20:09.807Z,52.03
2022-10-18T06:21:09.806Z,52.06
2022-10-18T06:22:09.822Z,51.64
2022-10-18T06:23:09.817Z,51.69
2022-10-18T06:24:09.843Z,51.38
2022-10-18T06:25:09.826Z,51.63
2022-10-18T06:26:09.805Z,51.32
2022-10-18T06:27:09.928Z,51.13
2022-10-18T06:28:11.518Z,51.3
2022-10-18T06:29:09.911Z,51.84
2022-10-18T06:30:09.799Z,51.52
2022-10-18T06:31:09.912Z,51.77
2022-10-18T06:32:09.796Z,51.6
2022-10-18T06:33:09.793Z,52.07
2022-10-18T06:34:09.811Z,51.8
2022-10-18T06:35:09.795Z,52.3
2022-10-18T06:36:09.795Z,51.93
2022-10-18T06:37:09.793Z,52.37
2022-10-18T06:38:09.813Z,52.16
2022-10-18T06:39:09.804Z,52.25
2022-10-18T06:40:09.807Z,52.35
2022-10-18T06:41:09.787Z,52.27
2022-10-18T06:42:09.796Z,51.91
2022-10-18T06:43:20.667Z,52.29
2022-10-18T06:44:09.796Z,51.81
2022-10-18T06:45:09.781Z,51.83
2022-10-18T06:46:09.816Z,51.62
2022-10-18T06:47:09.777Z,51.73
2022-10-18T06:48:09.908Z,51.72
2022-10-18T06:49:10.651Z,52.11
2022-10-18T06:50:09.787Z,51.45
2022-10-18T06:51:09.763Z,51.94
2022-10-18T06:52:09.774Z,52.01
2022-10-18T06:53:09.783Z,52.28
2022-10-18T06:54:18.358Z,52.33
2022-10-18T06:55:09.760Z,52.24
2022-10-18T06:56:09.768Z,51.87
2022-10-18T06:57:09.764Z,52.2
2022-10-18T06:58:09.767Z,51.81
2022-10-18T06:59:09.806Z,52.16
2022-10-18T07:00:09.784Z,52.46
2022-10-18T07:01:09.915Z,52.59
2022-10-18T07:02:09.759Z,52.23
2022-10-18T07:03:09.752Z,52.43
2022-10-18T07:04:09.775Z,52.39
2022-10-18T07:05:09.765Z,52.27
2022-10-18T07:06:09.760Z,52.58
2022-10-18T07:07:09.765Z,51.96
2022-10-18T07:08:09.754Z,52.69
2022-10-18T07:09:09.767Z,52.54
2022-10-18T07:10:12.935Z,52.28
2022-10-18T07:11:09.745Z,52.03
2022-10-18T07:12:09.755Z,52.79
2022-10-18T07:13:33.611Z,52.84
2022-10-18T07:14:12.620Z,52.64
2022-10-18T07:15:09.845Z,52.54
2022-10-18T07:16:11.600Z,52.82
2022-10-18T07:17:09.754Z,52.01
2022-10-18T07:18:09.769Z,52.34
2022-10-18T07:19:09.752Z,52.72
2022-10-18T07:20:09.743Z,52.78
2022-10-18T07:21:09.739Z,52.42
2022-10-18T07:22:09.770Z,51.97
2022-10-18T07:23:09.739Z,51.89
2022-10-18T07:24:09.755Z,52.5
2022-10-18T07:25:09.769Z,52.32
2022-10-18T07:26:09.746Z,52.38
2022-10-18T07:27:09.747Z,52.84
2022-10-18T07:28:09.767Z,52.66
2022-10-18T07:29:09.865Z,52.15
2022-10-18T07:30:09.743Z,52.42
2022-10-18T07:31:09.781Z,53.14
2022-10-18T07:32:09.740Z,52.52
2022-10-18T07:33:09.727Z,51.96
2022-10-18T07:34:09.741Z,52.15
2022-10-18T07:35:09.758Z,51.77
2022-10-18T07:36:09.727Z,52.25
2022-10-18T07:37:09.721Z,51.59
2022-10-18T07:38:09.723Z,51.94
2022-10-18T07:39:09.728Z,52.07
2022-10-18T07:40:09.748Z,51.94
2022-10-18T07:41:09.735Z,52.27
2022-10-18T07:42:09.710Z,52.39
2022-10-18T07:43:12.155Z,53.07
2022-10-18T07:44:09.708Z,52.02
2022-10-18T07:45:09.715Z,52.29
2022-10-18T07:46:09.710Z,51.97
2022-10-18T07:47:09.744Z,51.68
2022-10-18T07:48:09.715Z,52.73
2022-10-18T07:49:09.707Z,53.12
2022-10-18T07:50:09.706Z,52.35
2022-10-18T07:51:09.712Z,52.35
2022-10-18T07:52:09.698Z,51.73
2022-10-18T07:53:09.715Z,52.37
2022-10-18T07:54:09.712Z,52.28
2022-10-18T07:55:09.703Z,52.63
2022-10-18T07:56:09.869Z,52.83
2022-10-18T07:57:09.716Z,52.86
2022-10-18T07:58:09.754Z,52.22
2022-10-18T07:59:09.717Z,52.46
2022-10-18T08:00:09.697Z,52.42
2022-10-18T08:01:09.847Z,52.09
2022-10-18T08:02:09.697Z,52.59
2022-10-18T08:03:09.721Z,52.44
2022-10-18T08:04:13.966Z,52.54
2022-10-18T08:05:09.685Z,52.45
2022-10-18T08:06:09.709Z,52.5
2022-10-18T08:07:09.691Z,52.63
2022-10-18T08:08:09.682Z,52.91
2022-10-18T08:09:09.719Z,52.53
2022-10-18T08:10:09.681Z,52.52
2022-10-18T08:11:09.675Z,53.07
2022-10-18T08:12:09.683Z,52.17
2022-10-18T08:13:09.667Z,52.45
2022-10-18T08:14:09.693Z,52.78
2022-10-18T08:15:09.684Z,52.96
2022-10-18T08:16:09.669Z,52.87
2022-10-18T08:17:09.672Z,52.74
2022-10-18T08:18:09.811Z,52.8
2022-10-18T08:19:09.686Z,52.51
2022-10-18T08:20:12.206Z,52.83
2022-10-18T08:21:09.691Z,52.82
2022-10-18T08:22:09.682Z,52.97
2022-10-18T08:23:09.661Z,52.6
2022-10-18T08:24:09.662Z,52.62
2022-10-18T08:25:09.660Z,52.68
2022-10-18T08:26:09.671Z,53.03
2022-10-18T08:27:09.681Z,52.92
2022-10-18T08:28:09.721Z,52.97
2022-10-18T08:29:23.005Z,52.76
2022-10-18T08:30:09.653Z,53.17
2022-10-18T08:31:09.653Z,52.94
2022-10-18T08:32:09.735Z,53.25
2022-10-18T08:33:09.656Z,53.18
2022-10-18T08:34:09.655Z,52.53
2022-10-18T08:35:09.690Z,52.86
2022-10-18T08:36:09.678Z,53.12
2022-10-18T08:37:09.669Z,52.94
2022-10-18T08:38:09.656Z,52.74
2022-10-18T08:39:09.648Z,52.9
2022-10-18T08:40:09.656Z,53.31
2022-10-18T08:41:09.640Z,52.91
2022-10-18T08:42:09.658Z,52.95
2022-10-18T08:43:09.651Z,52.85
2022-10-18T08:44:09.646Z,53.12
2022-10-18T08:45:17.970Z,53.27
2022-10-18T08:46:09.640Z,53.08
2022-10-18T08:47:09.651Z,52.67
2022-10-18T08:48:09.638Z,52.99
2022-10-18T08:49:09.634Z,52.79
2022-10-18T08:50:09.647Z,52.48
2022-10-18T08:51:09.658Z,53.25
2022-10-18T08:52:09.636Z,53.35
2022-10-18T08:53:09.642Z,53.2
2022-10-18T08:54:09.632Z,53.53
2022-10-18T08:55:09.634Z,53.75
2022-10-18T08:56:09.628Z,53.42
2022-10-18T08:57:09.639Z,53.67
2022-10-18T08:58:09.680Z,54.33
2022-10-18T08:59:09.619Z,53.34
2022-10-18T09:00:09.624Z,52.76
2022-10-18T09:01:09.625Z,53.01
2022-10-18T09:02:09.620Z,53
2022-10-18T09:03:09.660Z,52.76
2022-10-18T09:04:09.615Z,52.89
2022-10-18T09:05:09.627Z,53.14
2022-10-18T09:06:09.612Z,52.75
2022-10-18T09:07:09.679Z,52.56
2022-10-18T09:08:09.619Z,52.77
2022-10-18T09:09:09.611Z,52.97
2022-10-18T09:10:09.723Z,52.59
2022-10-18T09:11:09.610Z,53.02
2022-10-18T09:12:09.628Z,53.42
2022-10-18T09:13:09.630Z,52.36
2022-10-18T09:14:09.608Z,52.55
2022-10-18T09:15:09.613Z,52.76
2022-10-18T09:16:09.611Z,52.74
2022-10-18T09:17:14.986Z,52.68
2022-10-18T09:18:09.644Z,52.69
2022-10-18T09:19:09.602Z,53.19
2022-10-18T09:20:09.614Z,53.2
2022-10-18T09:21:09.604Z,52.51
2022-10-18T09:22:09.768Z,51.99
2022-10-18T09:23:09.633Z,53.27
2022-10-18T09:24:09.596Z,53.36
2022-10-18T09:25:09.599Z,52.93
2022-10-18T09:26:09.610Z,52.76
2022-10-18T09:27:09.611Z,52.75
2022-10-18T09:28:09.589Z,53.83
2022-10-18T09:29:09.732Z,54.21
2022-10-18T09:30:09.580Z,55.72
2022-10-18T09:31:09.599Z,56.1
2022-10-18T09:32:09.596Z,55.61
2022-10-18T09:33:09.580Z,55.15
2022-10-18T09:34:09.598Z,56.03
2022-10-18T09:35:09.584Z,56.11
2022-10-18T09:36:09.600Z,56.3
2022-10-18T09:37:09.583Z,56.92
2022-10-18T09:38:09.581Z,56.48
2022-10-18T09:39:09.632Z,56.33
2022-10-18T09:40:09.576Z,56.37
2022-10-18T09:41:10.760Z,56.26
2022-10-18T09:42:09.569Z,56.32
2022-10-18T09:43:09.573Z,55.37
2022-10-18T09:44:09.592Z,55.45
2022-10-18T09:45:09.567Z,55.27
2022-10-18T09:46:09.597Z,54.69
2022-10-18T09:47:12.294Z,55.57
2022-10-18T09:48:09.573Z,55.31
2022-10-18T09:49:12.915Z,55.45
2022-10-18T09:50:09.565Z,55.12
2022-10-18T09:51:09.565Z,54.27
2022-10-18T09:52:09.589Z,54.27
2022-10-18T09:53:09.562Z,54.6
2022-10-18T09:54:09.572Z,54.93
2022-10-18T09:55:09.579Z,54.67
2022-10-18T09:56:09.619Z,55.14
2022-10-18T09:57:09.554Z,54.88
2022-10-18T09:58:09.585Z,54.82
2022-10-18T09:59:09.555Z,53.91
2022-10-18T10:00:09.558Z,55.09
2022-10-18T10:01:09.560Z,55.06
2022-10-18T10:02:09.576Z,55.31
2022-10-18T10:03:09.558Z,55.89
2022-10-18T10:04:10.550Z,54.46
2022-10-18T10:06:09.552Z,54.02
2022-10-18T10:07:09.545Z,55.32
2022-10-18T10:08:09.570Z,54.53
2022-10-18T10:09:09.572Z,55.26
2022-10-18T10:10:09.554Z,55.05
2022-10-18T10:11:09.563Z,55.98
2022-10-18T10:12:09.560Z,56.67
2022-10-18T10:13:09.541Z,56.33
2022-10-18T10:14:09.584Z,56.39
2022-10-18T10:15:09.544Z,56.57
2022-10-18T10:16:09.533Z,55.73
2022-10-18T10:17:09.530Z,54.77
2022-10-18T10:18:09.566Z,54.53
2022-10-18T10:19:09.548Z,54.11
2022-10-18T10:20:09.530Z,53.33
2022-10-18T10:21:09.531Z,53.83
2022-10-18T10:22:09.534Z,53.53
2022-10-18T10:23:09.592Z,54.3
2022-10-18T10:24:09.538Z,53.19
2022-10-18T10:25:09.525Z,53.64
2022-10-18T10:26:09.529Z,53.7
2022-10-18T10:27:09.547Z,52.9
2022-10-18T10:28:09.541Z,53.08
2022-10-18T10:29:17.599Z,52.57
2022-10-18T10:30:09.523Z,52.35
2022-10-18T10:31:09.514Z,52.41
2022-10-18T10:32:09.510Z,52.42
2022-10-18T10:33:09.538Z,52.43
2022-10-18T10:34:09.514Z,52.7
2022-10-18T10:35:13.622Z,52.39
2022-10-18T10:36:09.506Z,51.66
2022-10-18T10:37:09.505Z,52.56
2022-10-18T10:38:09.511Z,52.4
2022-10-18T10:39:09.502Z,52.21
2022-10-18T10:40:28.360Z,52.83
2022-10-18T10:41:09.503Z,52.85
2022-10-18T10:42:11.457Z,52.45
2022-10-18T10:43:18.137Z,52.03
2022-10-18T10:44:09.502Z,52.07
2022-10-18T10:45:09.504Z,52.48
2022-10-18T10:46:09.493Z,52.12
2022-10-18T10:47:09.514Z,52.85
2022-10-18T10:48:09.501Z,52.66
2022-10-18T10:49:38.612Z,52.15
2022-10-18T10:50:09.504Z,53.23
2022-10-18T10:51:09.495Z,53.2
2022-10-18T10:52:26.405Z,53.12
2022-10-18T10:53:09.495Z,53.55
2022-10-18T10:54:09.489Z,53.02
2022-10-18T10:55:30.761Z,53.16
2022-10-18T10:56:10.581Z,52.58
2022-10-18T10:57:09.504Z,52.26
2022-10-18T10:58:09.484Z,52.77
2022-10-18T10:59:09.590Z,53.01
2022-10-18T11:00:09.485Z,52.72
2022-10-18T11:01:11.295Z,51.97
2022-10-18T11:02:09.496Z,53.22
2022-10-18T11:03:27.305Z,52.92
2022-10-18T11:04:09.575Z,53.04
2022-10-18T11:05:09.481Z,53.54
2022-10-18T11:06:09.489Z,54
2022-10-18T11:07:09.490Z,53.23
2022-10-18T11:08:09.479Z,53.39
2022-10-18T11:09:09.469Z,52.66
2022-10-18T11:10:09.475Z,52.42
2022-10-18T11:11:09.471Z,52.21
2022-10-18T11:12:09.481Z,53.34
2022-10-18T11:13:09.475Z,52.97
2022-10-18T11:14:26.551Z,52.34
2022-10-18T11:15:09.493Z,52.9
2022-10-18T11:16:09.470Z,53.5
2022-10-18T11:17:09.527Z,54.48
2022-10-18T11:18:09.521Z,52.6
2022-10-18T11:19:09.462Z,52.1
2022-10-18T11:20:09.465Z,51.6
2022-10-18T11:21:09.462Z,51.57
2022-10-18T11:22:09.473Z,52.15
2022-10-18T11:23:09.454Z,51.51
2022-10-18T11:24:09.471Z,51.52
2022-10-18T11:25:09.462Z,52.18
2022-10-18T11:26:09.455Z,51.15
2022-10-18T11:27:10.439Z,51.02
2022-10-18T11:28:09.470Z,51.31
2022-10-18T11:29:09.445Z,51.22
2022-10-18T11:30:09.454Z,51.07
2022-10-18T11:31:09.474Z,51.07
2022-10-18T11:32:09.440Z,51.41
2022-10-18T11:33:09.456Z,51.67
2022-10-18T11:34:10.291Z,51.78
2022-10-18T11:35:09.445Z,52.42
2022-10-18T11:36:09.438Z,51.81
2022-10-18T11:37:27.252Z,51.75
2022-10-18T11:38:09.454Z,51.67
2022-10-18T11:39:09.445Z,51.88
2022-10-18T11:40:09.432Z,51.58
2022-10-18T11:41:09.448Z,51.56
2022-10-18T11:42:09.450Z,51.44
2022-10-18T11:43:09.434Z,51.32
2022-10-18T11:44:09.455Z,51.41
2022-10-18T11:45:09.424Z,51.54
2022-10-18T11:46:09.423Z,51.35
2022-10-18T11:47:09.496Z,51.38
2022-10-18T11:48:09.426Z,50.85
2022-10-18T11:49:09.433Z,50.65
2022-10-18T11:50:09.426Z,51.17
2022-10-18T11:51:09.438Z,50.6
2022-10-18T11:52:09.650Z,50.37
2022-10-18T11:53:09.424Z,50.31
2022-10-18T11:54:09.418Z,49.79
2022-10-18T11:55:09.437Z,50.09
2022-10-18T11:56:09.440Z,48.44
2022-10-18T11:57:09.424Z,49.76
2022-10-18T11:58:09.414Z,48.76
2022-10-18T11:59:09.416Z,48.27
2022-10-18T12:00:09.431Z,49.14
2022-10-18T12:01:09.414Z,49.18
2022-10-18T12:02:09.470Z,48.39
2022-10-18T12:03:09.548Z,48.37
2022-10-18T12:04:09.409Z,49.23
2022-10-18T12:05:23.232Z,49.12
2022-10-18T12:06:09.405Z,49.27
2022-10-18T12:07:09.409Z,48.78
2022-10-18T12:08:09.416Z,48.77
2022-10-18T12:09:09.404Z,49.57
2022-10-18T12:10:09.575Z,50.01
2022-10-18T12:11:09.395Z,49.41
2022-10-18T12:12:10.403Z,49.98
2022-10-18T12:13:09.400Z,48.83
2022-10-18T12:14:09.454Z,48.73
2022-10-18T12:15:09.409Z,49.28
2022-10-18T12:16:09.408Z,49.58
2022-10-18T12:17:39.292Z,49.77
2022-10-18T12:18:09.424Z,50.27
2022-10-18T12:19:09.424Z,49.58
2022-10-18T12:20:09.438Z,50.05
2022-10-18T12:21:09.403Z,50.16
2022-10-18T12:22:09.406Z,49.67
2022-10-18T12:23:09.418Z,49.81
2022-10-18T12:24:09.381Z,50.09
2022-10-18T12:25:09.381Z,49.93
2022-10-18T12:26:09.383Z,49.83
2022-10-18T12:27:09.378Z,50.17
2022-10-18T12:28:09.406Z,50.45
2022-10-18T12:29:09.377Z,50.05
2022-10-18T12:30:09.389Z,50.19
2022-10-18T12:31:10.777Z,50.17
2022-10-18T12:32:09.378Z,49.84
2022-10-18T12:33:27.093Z,50.63
2022-10-18T12:34:09.377Z,50.63
2022-10-18T12:35:09.409Z,50.75
2022-10-18T12:36:09.376Z,51.15
2022-10-18T12:37:09.367Z,51.18
2022-10-18T12:38:09.385Z,50.96
2022-10-18T12:39:09.382Z,50.87
2022-10-18T12:40:11.536Z,51.1
2022-10-18T12:41:09.371Z,50.94
2022-10-18T12:42:09.370Z,50.92
2022-10-18T12:43:09.375Z,50.8
2022-10-18T12:44:09.363Z,51.2
2022-10-18T12:45:09.377Z,50.89
2022-10-18T12:46:13.330Z,51.73
2022-10-18T12:47:09.360Z,51.74
2022-10-18T12:48:09.359Z,51.89
2022-10-18T12:49:09.374Z,52.07
2022-10-18T12:50:09.353Z,52.09
2022-10-18T12:51:09.377Z,52.37
2022-10-18T12:52:09.356Z,51.98
2022-10-18T12:53:09.350Z,52.81
2022-10-18T12:54:09.366Z,51.86
2022-10-18T12:55:11.815Z,52.1
2022-10-18T12:56:09.354Z,52.74
2022-10-18T12:57:09.352Z,52.37
2022-10-18T12:58:09.382Z,52.39